Time;durP1;ratioP1;P1;durP2;ratioP2;P2;SDS_P1;SDS_P2;PMS_P1;PMS_P2;Temp;Humidity;BMP_temperature;BMP_pressure;BME280_temperature;BME280_humidity;BME280_pressure;Samples;Min_cycle;Max_cycle;Signal;HPM_P1;HPM_P2
2023/07/12 00:00:28;;;;;;;0.82;0.70;;;;;;;;;;4377183;32;64627;-59
2023/07/12 00:03:16;;;;;;;1.42;0.60;;;;;;;;;;4398460;32;68235;-59
2023/07/12 00:06:17;;;;;;;0.95;0.88;;;;;;;;;;4388327;32;60336;-58
2023/07/12 00:09:05;;;;;;;0.75;0.73;;;;;;;;;;4387595;32;69121;-59
2023/07/12 00:11:52;;;;;;;0.62;0.62;;;;;;;;;;4399595;32;69471;-59
2023/07/12 00:14:39;;;;;;;1.12;0.73;;;;;;;;;;4377187;32;67913;-60
2023/07/12 00:17:26;;;;;;;0.43;0.43;;;;;;;;;;4399784;32;60364;-58
2023/07/12 00:20:42;;;;;;;1.85;0.65;;;;;;;;;;4398278;32;69427;-60
2023/07/12 00:23:29;;;;;;;1.05;0.75;;;;;;;;;;4399848;32;69251;-59
2023/07/12 00:26:21;;;;;;;1.45;0.60;;;;;;;;;;4388112;32;66576;-59
2023/07/12 00:29:10;;;;;;;0.43;0.43;;;;;;;;;;4399688;32;71755;-60
2023/07/12 00:31:57;;;;;;;1.05;0.73;;;;;;;;;;4365913;32;66208;-60
2023/07/12 00:34:43;;;;;;;0.60;0.60;;;;;;;;;;4398215;32;66967;-59
2023/07/12 00:37:30;;;;;;;0.40;0.40;;;;;;;;;;4399415;32;67692;-61
2023/07/12 00:40:31;;;;;;;1.70;0.60;;;;;;;;;;4376511;32;71722;-60
2023/07/12 00:43:26;;;;;;;0.62;0.60;;;;;;;;;;4399129;32;65979;-59
2023/07/12 00:46:36;;;;;;;0.40;0.40;;;;;;;;;;4399316;32;67114;-59
2023/07/12 00:49:24;;;;;;;0.55;0.55;;;;;;;;;;4387706;32;59215;-59
2023/07/12 00:52:15;;;;;;;0.45;0.45;;;;;;;;;;4364841;32;70246;-59
2023/07/12 00:55:04;;;;;;;0.68;0.55;;;;;;;;;;4376673;32;69125;-59
2023/07/12 00:57:50;;;;;;;0.50;0.50;;;;;;;;;;4387014;32;66845;-58
2023/07/12 01:00:37;;;;;;;1.33;0.50;;;;;;;;;;4398136;32;71579;-59
2023/07/12 01:03:24;;;;;;;0.70;0.70;;;;;;;;;;4397066;32;70764;-60
2023/07/12 01:06:14;;;;;;;1.52;0.65;;;;;;;;;;4386590;32;69290;-59
2023/07/12 01:09:07;;;;;;;0.80;0.50;;;;;;;;;;4387018;32;67386;-58
2023/07/12 01:11:54;;;;;;;0.57;0.57;;;;;;;;;;4365176;32;70399;-59
2023/07/12 01:14:42;;;;;;;0.65;0.65;;;;;;;;;;4375527;32;66808;-59
2023/07/12 01:17:29;;;;;;;1.02;0.60;;;;;;;;;;4397567;32;67032;-59
2023/07/12 01:20:16;;;;;;;0.80;0.62;;;;;;;;;;4387066;32;59534;-59
2023/07/12 01:23:02;;;;;;;1.17;0.30;;;;;;;;;;4398889;32;69699;-59
2023/07/12 01:26:15;;;;;;;0.40;0.40;;;;;;;;;;4386725;32;69507;-59
2023/07/12 01:29:05;;;;;;;0.52;0.50;;;;;;;;;;4386846;32;67899;-59
2023/07/12 01:31:52;;;;;;;1.25;0.50;;;;;;;;;;4375433;32;60868;-59
2023/07/12 01:34:38;;;;;;;0.82;0.68;;;;;;;;;;4375144;32;67824;-60
2023/07/12 01:37:25;;;;;;;0.52;0.40;;;;;;;;;;4375952;32;69452;-60
2023/07/12 01:40:13;;;;;;;1.37;0.40;;;;;;;;;;4364765;32;67242;-59
2023/07/12 01:42:59;;;;;;;0.32;0.32;;;;;;;;;;4386440;32;71599;-59
2023/07/12 01:45:46;;;;;;;0.30;0.30;;;;;;;;;;4397414;32;64925;-59
2023/07/12 01:48:33;;;;;;;0.43;0.43;;;;;;;;;;4375384;32;68809;-59
2023/07/12 01:51:20;;;;;;;0.80;0.55;;;;;;;;;;4386494;32;59251;-59
2023/07/12 01:54:09;;;;;;;0.47;0.40;;;;;;;;;;4375441;32;72409;-59
2023/07/12 01:56:58;;;;;;;0.50;0.50;;;;;;;;;;4364971;32;63381;-59
2023/07/12 01:59:45;;;;;;;0.75;0.30;;;;;;;;;;4385700;32;67536;-59
2023/07/12 02:02:31;;;;;;;1.62;0.50;;;;;;;;;;4398624;32;60173;-60
2023/07/12 02:05:18;;;;;;;0.45;0.45;;;;;;;;;;4375604;32;70397;-58
2023/07/12 02:08:05;;;;;;;1.17;0.40;;;;;;;;;;4374776;32;70279;-59
2023/07/12 02:10:52;;;;;;;0.60;0.32;;;;;;;;;;4364235;32;68060;-59
2023/07/12 02:13:39;;;;;;;0.50;0.50;;;;;;;;;;4386225;32;71792;-59
2023/07/12 02:16:26;;;;;;;0.43;0.43;;;;;;;;;;4386198;32;66398;-59
2023/07/12 02:19:12;;;;;;;1.25;0.37;;;;;;;;;;4386068;32;69388;-58
2023/07/12 02:22:02;;;;;;;0.43;0.43;;;;;;;;;;4386413;32;66668;-59
2023/07/12 02:24:49;;;;;;;0.57;0.40;;;;;;;;;;4385521;32;71634;-60
2023/07/12 02:27:39;;;;;;;0.45;0.45;;;;;;;;;;4386543;32;64829;-59
2023/07/12 02:30:27;;;;;;;1.20;0.60;;;;;;;;;;4386027;32;67827;-60
2023/07/12 02:33:15;;;;;;;0.90;0.40;;;;;;;;;;4385880;32;59939;-60
2023/07/12 02:36:02;;;;;;;0.55;0.55;;;;;;;;;;4385865;32;69634;-58
2023/07/12 02:38:48;;;;;;;1.08;0.47;;;;;;;;;;4396656;32;69222;-60
2023/07/12 02:41:35;;;;;;;0.40;0.40;;;;;;;;;;4375623;32;67557;-59
2023/07/12 02:44:22;;;;;;;1.48;0.28;;;;;;;;;;4386177;32;59232;-59
2023/07/12 02:47:10;;;;;;;0.90;0.40;;;;;;;;;;4375227;32;70434;-59
2023/07/12 02:49:56;;;;;;;0.32;0.32;;;;;;;;;;4386063;32;68486;-60
2023/07/12 02:52:44;;;;;;;0.90;0.50;;;;;;;;;;4374198;32;68424;-59
2023/07/12 02:55:31;;;;;;;0.30;0.30;;;;;;;;;;4375088;32;71882;-59
2023/07/12 02:58:17;;;;;;;;;;;;;;;;;;4386364;32;64823;-59
2023/07/12 03:01:04;;;;;;;0.80;0.57;;;;;;;;;;4397045;32;67348;-59
2023/07/12 03:03:52;;;;;;;0.73;0.40;;;;;;;;;;4386036;32;59061;-59
2023/07/12 03:06:39;;;;;;;1.67;0.68;;;;;;;;;;4363621;32;72399;-59
2023/07/12 03:09:25;;;;;;;;;;;;;;;;;;4386142;32;65931;-58
2023/07/12 03:12:12;;;;;;;0.28;0.28;;;;;;;;;;4396524;32;68449;-59
2023/07/12 03:14:59;;;;;;;1.12;0.50;;;;;;;;;;4397769;32;60529;-59
2023/07/12 03:17:46;;;;;;;0.60;0.60;;;;;;;;;;4397508;32;69577;-60
2023/07/12 03:20:33;;;;;;;0.65;0.65;;;;;;;;;;4397465;32;69325;-59
2023/07/12 03:23:20;;;;;;;0.80;0.60;;;;;;;;;;4385634;32;66832;-59
2023/07/12 03:26:07;;;;;;;1.12;0.80;;;;;;;;;;4373891;32;72214;-59
2023/07/12 03:28:53;;;;;;;0.62;0.62;;;;;;;;;;4375549;32;64007;-59
2023/07/12 03:31:40;;;;;;;1.23;0.80;;;;;;;;;;4388135;32;69282;-58
2023/07/12 03:34:27;;;;;;;0.77;0.77;;;;;;;;;;4387669;32;68096;-60
2023/07/12 03:37:13;;;;;;;1.25;0.68;;;;;;;;;;4387925;32;71723;-58
2023/07/12 03:40:00;;;;;;;1.83;0.73;;;;;;;;;;4398742;32;65891;-59
2023/07/12 03:42:46;;;;;;;;;;;;;;;;;;4377118;32;67329;-57
2023/07/12 03:45:33;;;;;;;0.87;0.87;;;;;;;;;;4388055;32;59381;-59
2023/07/12 03:48:20;;;;;;;0.73;0.73;;;;;;;;;;4398767;32;70606;-59
2023/07/12 03:51:08;;;;;;;1.45;1.10;;;;;;;;;;4387866;32;68451;-59
2023/07/12 03:53:54;;;;;;;2.15;0.90;;;;;;;;;;4387641;32;68407;-59
2023/07/12 03:56:41;;;;;;;1.35;0.95;;;;;;;;;;4388359;32;60228;-59
2023/07/12 03:59:28;;;;;;;1.40;0.80;;;;;;;;;;4388090;32;70212;-60
2023/07/12 04:02:15;;;;;;;2.30;1.10;;;;;;;;;;4387545;32;69746;-59
2023/07/12 04:05:01;;;;;;;0.82;0.73;;;;;;;;;;4399736;32;68066;-59
2023/07/12 04:07:51;;;;;;;1.10;1.00;;;;;;;;;;4397968;32;72309;-59
2023/07/12 04:10:38;;;;;;;1.25;0.90;;;;;;;;;;4398600;32;66139;-58
2023/07/12 04:13:26;;;;;;;0.93;0.77;;;;;;;;;;4387663;32;66629;-59
2023/07/12 04:16:10;;;;;;;1.15;0.85;;;;;;;;;;3847470;37;43461;-59
2023/07/12 04:18:57;;;;;;;0.80;0.80;;;;;;;;;;4410044;32;59037;-58
2023/07/12 04:21:44;;;;;;;1.95;1.00;;;;;;;;;;4388047;32;70595;-59
2023/07/12 04:24:31;;;;;;;1.25;1.15;;;;;;;;;;4398863;32;68325;-58
2023/07/12 04:27:21;;;;;;;1.37;1.08;;;;;;;;;;4388284;32;66632;-58
2023/07/12 04:30:11;;;;;;;0.88;0.88;;;;;;;;;;4409793;32;71739;-59
2023/07/12 04:32:57;;;;;;;3.03;1.20;;;;;;;;;;4409650;32;66169;-59
2023/07/12 04:35:44;;;;;;;1.35;1.02;;;;;;;;;;4398331;32;67925;-60
2023/07/12 04:38:31;;;;;;;0.60;0.60;;;;;;;;;;4398595;32;60679;-59
2023/07/12 04:41:17;;;;;;;1.60;0.95;;;;;;;;;;4398734;32;71693;-59
2023/07/12 04:44:04;;;;;;;3.75;1.10;;;;;;;;;;4398225;32;65008;-60
2023/07/12 04:46:51;;;;;;;1.08;0.80;;;;;;;;;;4409595;32;66494;-59
2023/07/12 04:49:37;;;;;;;;;;;;;;;;;;4388541;32;59842;-58
2023/07/12 04:52:24;;;;;;;2.43;1.47;;;;;;;;;;4408760;32;71032;-59
2023/07/12 04:55:25;;;;;;;2.35;1.20;;;;;;;;;;4409243;32;69312;-58
2023/07/12 04:58:12;;;;;;;2.65;1.23;;;;;;;;;;4398076;32;67127;-60
2023/07/12 05:00:59;;;;;;;;;;;;;;;;;;4398217;32;72369;-58
2023/07/12 05:03:47;;;;;;;2.50;1.00;;;;;;;;;;4409944;32;65447;-58
2023/07/12 05:06:34;;;;;;;1.75;1.12;;;;;;;;;;4387736;32;69349;-58
2023/07/12 05:09:21;;;;;;;1.70;1.10;;;;;;;;;;4397847;32;68432;-59
2023/07/12 05:12:08;;;;;;;1.37;0.90;;;;;;;;;;4387596;32;71539;-58
2023/07/12 05:14:54;;;;;;;0.68;0.68;;;;;;;;;;4408621;32;64980;-60
2023/07/12 05:17:41;;;;;;;0.70;0.62;;;;;;;;;;4387621;32;67575;-59
2023/07/12 05:20:28;;;;;;;1.85;0.80;;;;;;;;;;4386966;32;59624;-59
2023/07/12 05:23:15;;;;;;;1.27;0.90;;;;;;;;;;4386891;32;68496;-59
2023/07/12 05:26:02;;;;;;;0.90;0.70;;;;;;;;;;4394230;32;68605;-59
2023/07/12 05:28:48;;;;;;;1.55;0.88;;;;;;;;;;4400081;32;66729;-58
2023/07/12 05:31:36;;;;;;;2.12;0.93;;;;;;;;;;4377673;32;60254;-59
2023/07/12 05:34:22;;;;;;;1.20;0.85;;;;;;;;;;4376638;32;71472;-59
2023/07/12 05:37:11;;;;;;;1.37;0.93;;;;;;;;;;4387951;32;69553;-58
2023/07/12 05:39:58;;;;;;;1.10;0.93;;;;;;;;;;4388019;32;66766;-59
2023/07/12 05:42:44;;;;;;;2.70;1.15;;;;;;;;;;4377019;32;70787;-59
2023/07/12 05:45:31;;;;;;;0.85;0.75;;;;;;;;;;4399915;32;65976;-59
2023/07/12 05:48:18;;;;;;;1.10;1.00;;;;;;;;;;4387880;32;67359;-60
2023/07/12 05:51:04;;;;;;;0.75;0.75;;;;;;;;;;4377316;32;60121;-60
2023/07/12 05:53:51;;;;;;;4.10;1.00;;;;;;;;;;4386649;32;72162;-60
2023/07/12 05:56:38;;;;;;;3.08;0.80;;;;;;;;;;4397864;32;64988;-59
2023/07/12 05:59:25;;;;;;;0.90;0.68;;;;;;;;;;4398421;32;67613;-60
2023/07/12 06:02:13;;;;;;;1.12;0.68;;;;;;;;;;4398209;32;60574;-58
2023/07/12 06:05:00;;;;;;;0.65;0.52;;;;;;;;;;4398358;32;70294;-59
2023/07/12 06:07:47;;;;;;;1.73;1.12;;;;;;;;;;4398312;32;69362;-58
2023/07/12 06:10:33;;;;;;;0.65;0.60;;;;;;;;;;4377011;32;67464;-59
2023/07/12 06:13:20;;;;;;;0.47;0.47;;;;;;;;;;4376821;32;73194;-59
2023/07/12 06:16:07;;;;;;;1.12;0.70;;;;;;;;;;4387429;32;65877;-59
2023/07/12 06:18:53;;;;;;;0.85;0.85;;;;;;;;;;4387154;32;68070;-59
2023/07/12 06:21:40;;;;;;;0.68;0.68;;;;;;;;;;4399425;32;67913;-60
2023/07/12 06:24:26;;;;;;;;;;;;;;;;;;4387487;32;71685;-58
2023/07/12 06:27:13;;;;;;;0.50;0.47;;;;;;;;;;4397856;32;67302;-58
2023/07/12 06:30:00;;;;;;;0.80;0.70;;;;;;;;;;4398175;32;67806;-58
2023/07/12 06:32:46;;;;;;;0.40;0.40;;;;;;;;;;4399607;32;59999;-58
2023/07/12 06:35:33;;;;;;;;;;;;;;;;;;4375990;32;68690;-58
2023/07/12 06:38:21;;;;;;;1.62;1.17;;;;;;;;;;4386523;32;68519;-59
2023/07/12 06:41:07;;;;;;;1.62;1.17;;;;;;;;;;4386512;32;67810;-59
2023/07/12 06:43:54;;;;;;;1.70;1.10;;;;;;;;;;4386943;32;60353;-60
2023/07/12 06:46:41;;;;;;;1.48;1.10;;;;;;;;;;4397787;32;70423;-58
2023/07/12 06:49:27;;;;;;;2.15;1.05;;;;;;;;;;4376510;32;68316;-57
2023/07/12 06:52:14;;;;;;;1.08;0.90;;;;;;;;;;4397161;32;67207;-59
2023/07/12 06:55:01;;;;;;;2.72;1.05;;;;;;;;;;4397461;32;71806;-59
2023/07/12 06:57:47;;;;;;;1.35;1.10;;;;;;;;;;4397068;32;66116;-59
2023/07/12 07:00:34;;;;;;;0.77;0.75;;;;;;;;;;4397247;32;67711;-57
2023/07/12 07:03:20;;;;;;;0.90;0.68;;;;;;;;;;4387308;32;59237;-59
2023/07/12 07:06:07;;;;;;;2.10;1.55;;;;;;;;;;4398657;32;70646;-59
2023/07/12 07:08:53;;;;;;;;;;;;;;;;;;4398138;32;65969;-59
2023/07/12 07:11:41;;;;;;;3.42;1.50;;;;;;;;;;4397676;32;67810;-59
2023/07/12 07:14:27;;;;;;;1.50;1.40;;;;;;;;;;4376068;32;60135;-59
2023/07/12 07:17:14;;;;;;;0.60;0.60;;;;;;;;;;4375577;32;70071;-59
2023/07/12 07:20:00;;;;;;;1.23;0.95;;;;;;;;;;4397404;32;69139;-59
2023/07/12 07:22:47;;;;;;;0.70;0.70;;;;;;;;;;4386686;32;67636;-59
2023/07/12 07:25:34;;;;;;;2.15;1.20;;;;;;;;;;4397384;32;71756;-59
2023/07/12 07:28:21;;;;;;;0.75;0.50;;;;;;;;;;4397527;32;65722;-59
2023/07/12 07:31:07;;;;;;;;;;;;;;;;;;4386499;32;68224;-59
2023/07/12 07:33:53;;;;;;;2.77;1.00;;;;;;;;;;4386890;32;68096;-59
2023/07/12 07:36:40;;;;;;;1.27;0.73;;;;;;;;;;4374814;32;71803;-59
2023/07/12 07:39:27;;;;;;;0.90;0.90;;;;;;;;;;4386433;32;65856;-58
2023/07/12 07:42:14;;;;;;;2.50;0.95;;;;;;;;;;4397172;32;66838;-59
2023/07/12 07:45:00;;;;;;;1.30;0.82;;;;;;;;;;4397467;32;60000;-59
2023/07/12 07:47:47;;;;;;;1.35;0.80;;;;;;;;;;4396368;32;71410;-57
2023/07/12 07:50:34;;;;;;;1.65;1.55;;;;;;;;;;4386259;32;70092;-58
2023/07/12 07:53:21;;;;;;;1.10;1.00;;;;;;;;;;4385634;32;68311;-58
2023/07/12 07:56:07;;;;;;;;;;;;;;;;;;4376282;32;71699;-57
2023/07/12 07:58:54;;;;;;;2.83;1.00;;;;;;;;;;4397138;32;69429;-59
2023/07/12 08:01:41;;;;;;;0.98;0.88;;;;;;;;;;4364331;32;68781;-59
2023/07/12 08:04:28;;;;;;;0.57;0.57;;;;;;;;;;4397010;32;67639;-58
2023/07/12 08:07:14;;;;;;;1.37;0.77;;;;;;;;;;4374747;32;69319;-57
2023/07/12 08:10:02;;;;;;;1.23;1.20;;;;;;;;;;4375773;32;66244;-57
2023/07/12 08:12:49;;;;;;;1.48;0.80;;;;;;;;;;4374894;32;65895;-58
2023/07/12 08:15:36;;;;;;;1.55;0.90;;;;;;;;;;4375448;32;60026;-57
2023/07/12 08:18:24;;;;;;;0.68;0.68;;;;;;;;;;4374985;32;69901;-58
2023/07/12 08:21:13;;;;;;;3.28;0.93;;;;;;;;;;4396437;32;68347;-57
2023/07/12 08:24:00;;;;;;;0.82;0.65;;;;;;;;;;4386485;32;67500;-58
2023/07/12 08:26:48;;;;;;;3.67;0.90;;;;;;;;;;4375162;32;59327;-59
2023/07/12 08:29:35;;;;;;;1.12;0.82;;;;;;;;;;4385459;32;68415;-59
2023/07/12 08:32:22;;;;;;;1.87;1.10;;;;;;;;;;4386029;32;69113;-58
2023/07/12 08:35:11;;;;;;;0.85;0.82;;;;;;;;;;4386003;32;67816;-59
2023/07/12 08:37:58;;;;;;;2.15;0.93;;;;;;;;;;4396490;32;71434;-57
2023/07/12 08:40:48;;;;;;;0.60;0.60;;;;;;;;;;4375070;32;65024;-58
2023/07/12 08:43:36;;;;;;;3.15;0.90;;;;;;;;;;4364467;32;66697;-58
2023/07/12 08:46:25;;;;;;;2.47;1.15;;;;;;;;;;4377020;32;59177;-57
2023/07/12 08:49:13;;;;;;;0.40;0.40;;;;;;;;;;4376753;32;71884;-58
2023/07/12 08:52:04;;;;;;;1.75;0.80;;;;;;;;;;4387064;32;65085;-59
2023/07/12 08:54:53;;;;;;;2.70;0.95;;;;;;;;;;4386626;32;67872;-57
2023/07/12 08:57:41;;;;;;;1.00;0.88;;;;;;;;;;4387330;32;60415;-58
2023/07/12 09:00:30;;;;;;;0.75;0.70;;;;;;;;;;4376723;32;68486;-60
2023/07/12 09:03:18;;;;;;;0.98;0.95;;;;;;;;;;4383435;32;69925;-58
2023/07/12 09:06:15;;;;;;;1.02;0.80;;;;;;;;;;4380349;32;65096;-58
2023/07/12 09:09:04;;;;;;;;;;;;;;;;;;4402969;32;71862;-58
2023/07/12 09:11:51;;;;;;;2.22;1.02;;;;;;;;;;4391250;32;69292;-58
2023/07/12 09:14:37;;;;;;;2.78;0.70;;;;;;;;;;4389393;32;67556;-57
2023/07/12 09:17:28;;;;;;;1.75;0.77;;;;;;;;;;4369121;32;68734;-59
2023/07/12 09:20:26;;;;;;;0.70;0.70;;;;;;;;;;4389408;32;69376;-59
2023/07/12 09:23:15;;;;;;;2.87;0.88;;;;;;;;;;4378784;32;65875;-60
2023/07/12 09:26:05;;;;;;;1.17;1.00;;;;;;;;;;4388714;32;67866;-60
2023/07/12 09:28:57;;;;;;;0.75;0.70;;;;;;;;;;4388242;32;57757;-58
2023/07/12 09:31:45;;;;;;;2.85;0.90;;;;;;;;;;4376751;32;69431;-58
2023/07/12 09:34:38;;;;;;;2.60;1.02;;;;;;;;;;4376744;32;65997;-57
2023/07/12 09:37:25;;;;;;;1.15;1.05;;;;;;;;;;4365773;32;67744;-58
2023/07/12 09:40:17;;;;;;;1.20;0.77;;;;;;;;;;4376707;32;59090;-58
2023/07/12 09:43:25;;;;;;;1.62;1.27;;;;;;;;;;4365944;32;69319;-58
2023/07/12 09:46:23;;;;;;;0.40;0.40;;;;;;;;;;4387628;32;68455;-60
2023/07/12 09:49:22;;;;;;;1.20;0.88;;;;;;;;;;4376515;32;67742;-59
2023/07/12 09:52:21;;;;;;;1.10;0.62;;;;;;;;;;4387448;32;71868;-58
2023/07/12 09:55:21;;;;;;;1.27;0.80;;;;;;;;;;4398235;32;66218;-59
2023/07/12 09:58:25;;;;;;;1.27;1.10;;;;;;;;;;4387074;32;68644;-58
2023/07/12 10:01:54;;;;;;;1.75;0.85;;;;;;;;;;4376179;32;60860;-59
2023/07/12 10:04:54;;;;;;;0.70;0.70;;;;;;;;;;4391408;32;72837;-59
2023/07/12 10:07:43;;;;;;;1.85;0.93;;;;;;;;;;4387293;32;65832;-59
2023/07/12 10:10:48;;;;;;;1.35;0.90;;;;;;;;;;4387442;32;68136;-59
2023/07/12 10:13:46;;;;;;;2.40;1.08;;;;;;;;;;4365344;32;60185;-58
2023/07/12 10:16:36;;;;;;;2.78;1.15;;;;;;;;;;4397973;32;70795;-59
2023/07/12 10:19:31;;;;;;;0.98;0.90;;;;;;;;;;4397969;32;69294;-59
2023/07/12 10:22:40;;;;;;;1.62;0.82;;;;;;;;;;4376860;32;67634;-57
2023/07/12 10:25:34;;;;;;;1.90;1.40;;;;;;;;;;4365489;32;72621;-60
2023/07/12 10:28:45;;;;;;;0.98;0.93;;;;;;;;;;4398387;32;66290;-59
2023/07/12 10:31:53;;;;;;;2.15;0.95;;;;;;;;;;4386406;32;68317;-60
2023/07/12 10:34:48;;;;;;;2.78;1.20;;;;;;;;;;4397609;32;67634;-59
2023/07/12 10:37:40;;;;;;;2.37;1.20;;;;;;;;;;4376171;32;71655;-59
2023/07/12 10:40:38;;;;;;;2.35;1.10;;;;;;;;;;4387022;32;65904;-59
2023/07/12 10:43:27;;;;;;;4.45;1.73;;;;;;;;;;4387109;32;67832;-59
2023/07/12 10:46:41;;;;;;;1.65;1.00;;;;;;;;;;4387207;32;60076;-59
2023/07/12 10:49:52;;;;;;;1.27;0.93;;;;;;;;;;4376338;32;70435;-59
2023/07/12 10:53:23;;;;;;;1.00;1.00;;;;;;;;;;4385954;32;70389;-61
2023/07/12 10:56:13;;;;;;;2.10;1.12;;;;;;;;;;4375433;32;68013;-59
2023/07/12 10:59:31;;;;;;;2.90;1.10;;;;;;;;;;4375827;32;60933;-60
2023/07/12 11:02:29;;;;;;;1.02;0.80;;;;;;;;;;4375544;32;70194;-60
2023/07/12 11:05:47;;;;;;;1.10;1.00;;;;;;;;;;4389944;32;68167;-59
2023/07/12 11:08:35;;;;;;;1.17;1.10;;;;;;;;;;4379837;32;66587;-58
2023/07/12 11:11:25;;;;;;;2.10;1.00;;;;;;;;;;4391966;32;71755;-59
2023/07/12 11:14:15;;;;;;;1.58;1.00;;;;;;;;;;4378819;32;66607;-59
2023/07/12 11:17:09;;;;;;;0.93;0.80;;;;;;;;;;4385853;32;68385;-59
2023/07/12 11:20:06;;;;;;;0.77;0.77;;;;;;;;;;4375585;32;60480;-60
2023/07/12 11:23:20;;;;;;;1.10;1.00;;;;;;;;;;4364585;32;70275;-59
2023/07/12 11:26:26;;;;;;;1.42;0.65;;;;;;;;;;4382935;32;64932;-61
2023/07/12 11:29:38;;;;;;;1.00;0.85;;;;;;;;;;4397358;32;67034;-59
2023/07/12 11:32:33;;;;;;;0.80;0.80;;;;;;;;;;4375652;32;61312;-60
2023/07/12 11:35:47;;;;;;;0.95;0.73;;;;;;;;;;4386488;32;70832;-59
2023/07/12 11:38:35;;;;;;;0.80;0.80;;;;;;;;;;4375743;32;69524;-59
2023/07/12 11:41:26;;;;;;;2.20;1.05;;;;;;;;;;4375956;32;67729;-60
2023/07/12 11:44:17;;;;;;;2.00;1.27;;;;;;;;;;4375351;32;72106;-59
2023/07/12 11:47:04;;;;;;;0.90;0.90;;;;;;;;;;4397229;32;65928;-60
2023/07/12 11:49:55;;;;;;;1.12;0.90;;;;;;;;;;4397005;32;69438;-59
2023/07/12 11:52:42;;;;;;;0.70;0.70;;;;;;;;;;4375776;32;67947;-60
2023/07/12 11:55:30;;;;;;;1.95;1.08;;;;;;;;;;4385699;32;72319;-60
2023/07/12 11:58:20;;;;;;;1.75;1.12;;;;;;;;;;4386387;32;65248;-59
2023/07/12 12:01:14;;;;;;;0.77;0.70;;;;;;;;;;4375178;32;67725;-59
2023/07/12 12:04:03;;;;;;;0.70;0.70;;;;;;;;;;4375282;32;60061;-59
2023/07/12 12:06:52;;;;;;;1.80;0.88;;;;;;;;;;4386139;32;69527;-62
2023/07/12 12:09:39;;;;;;;0.95;0.95;;;;;;;;;;4375139;32;69903;-59
2023/07/12 12:12:30;;;;;;;1.20;1.10;;;;;;;;;;4386222;32;67857;-60
2023/07/12 12:15:23;;;;;;;1.10;1.00;;;;;;;;;;4385421;32;58519;-60
2023/07/12 12:18:17;;;;;;;2.15;0.75;;;;;;;;;;4385922;32;70611;-59
2023/07/12 12:21:11;;;;;;;2.03;1.10;;;;;;;;;;4375090;32;69910;-59
2023/07/12 12:24:06;;;;;;;0.90;0.90;;;;;;;;;;4385169;32;67779;-59
2023/07/12 12:26:52;;;;;;;1.67;1.45;;;;;;;;;;4396337;32;71156;-60
2023/07/12 12:29:39;;;;;;;3.25;1.02;;;;;;;;;;4396717;32;66014;-60
2023/07/12 12:32:26;;;;;;;2.30;1.10;;;;;;;;;;4374867;32;68377;-59
2023/07/12 12:35:13;;;;;;;2.72;1.42;;;;;;;;;;4386010;32;60143;-59
2023/07/12 12:38:11;;;;;;;1.45;0.98;;;;;;;;;;4377307;32;71200;-59
2023/07/12 12:41:18;;;;;;;1.60;0.70;;;;;;;;;;4399317;32;66176;-59
2023/07/12 12:44:12;;;;;;;0.80;0.80;;;;;;;;;;4387686;32;67645;-59
2023/07/12 12:47:00;;;;;;;1.62;1.12;;;;;;;;;;4399515;32;60567;-59
2023/07/12 12:49:47;;;;;;;2.22;1.27;;;;;;;;;;4388379;32;69873;-59
2023/07/12 12:52:38;;;;;;;2.15;1.12;;;;;;;;;;4398807;32;68220;-60
2023/07/12 12:55:25;;;;;;;1.52;0.85;;;;;;;;;;4399057;32;66701;-59
2023/07/12 12:58:14;;;;;;;2.55;1.40;;;;;;;;;;4377538;32;71467;-60
2023/07/12 13:01:01;;;;;;;1.60;0.90;;;;;;;;;;4399385;32;64791;-59
2023/07/12 13:03:50;;;;;;;1.52;0.77;;;;;;;;;;4388179;32;67467;-59
2023/07/12 13:06:37;;;;;;;3.35;1.17;;;;;;;;;;4387661;32;68166;-58
2023/07/12 13:09:24;;;;;;;2.22;1.20;;;;;;;;;;4388473;32;71703;-59
2023/07/12 13:12:24;;;;;;;1.67;0.95;;;;;;;;;;4377647;32;64041;-59
2023/07/12 13:15:14;;;;;;;1.12;1.05;;;;;;;;;;4387365;32;66664;-60
2023/07/12 13:18:01;;;;;;;1.12;0.93;;;;;;;;;;4399018;32;60311;-59
2023/07/12 13:20:48;;;;;;;2.50;1.27;;;;;;;;;;4387640;32;68884;-59
2023/07/12 13:23:35;;;;;;;2.22;0.95;;;;;;;;;;4398673;32;68367;-60
2023/07/12 13:26:23;;;;;;;1.35;1.10;;;;;;;;;;4376893;32;67296;-59
2023/07/12 13:29:17;;;;;;;2.78;1.48;;;;;;;;;;4377516;32;71856;-59
2023/07/12 13:32:10;;;;;;;1.55;1.42;;;;;;;;;;4387869;32;69576;-59
2023/07/12 13:34:57;;;;;;;1.40;1.12;;;;;;;;;;4377096;32;68822;-59
2023/07/12 13:37:44;;;;;;;1.45;1.35;;;;;;;;;;4376173;32;68666;-59
2023/07/12 13:40:31;;;;;;;1.35;1.10;;;;;;;;;;4387924;32;71311;-59
2023/07/12 13:43:18;;;;;;;2.80;1.05;;;;;;;;;;4377321;32;66114;-58
2023/07/12 13:46:23;;;;;;;2.37;1.30;;;;;;;;;;4398775;32;66416;-58
2023/07/12 13:49:14;;;;;;;1.55;1.30;;;;;;;;;;4377390;32;60200;-59
2023/07/12 13:52:01;;;;;;;2.05;1.23;;;;;;;;;;4376882;32;71060;-60
2023/07/12 13:54:48;;;;;;;1.48;0.90;;;;;;;;;;4377357;32;69405;-59
2023/07/12 13:57:35;;;;;;;1.00;0.70;;;;;;;;;;4376989;32;67507;-59
2023/07/12 14:00:21;;;;;;;;;;;;;;;;;;4388191;32;60398;-60
2023/07/12 14:03:10;;;;;;;2.27;1.20;;;;;;;;;;4387960;32;70043;-59
2023/07/12 14:05:56;;;;;;;1.30;1.20;;;;;;;;;;4397672;32;69638;-58
2023/07/12 14:08:42;;;;;;;;;;;;;;;;;;4398462;32;67705;-59
2023/07/12 14:11:31;;;;;;;1.35;1.20;;;;;;;;;;4376891;32;71896;-59
2023/07/12 14:14:18;;;;;;;2.37;1.20;;;;;;;;;;4397739;32;65000;-60
2023/07/12 14:17:08;;;;;;;;;;;;;;;;;;4387362;32;68362;-58
2023/07/12 14:20:01;;;;;;;2.08;1.48;;;;;;;;;;4387481;32;67815;-58
2023/07/12 14:22:47;;;;;;;1.33;1.23;;;;;;;;;;4376056;32;72447;-59
2023/07/12 14:25:37;;;;;;;1.62;1.08;;;;;;;;;;4397930;32;65920;-59
2023/07/12 14:28:23;;;;;;;4.12;2.30;;;;;;;;;;4376392;32;67746;-59
2023/07/12 14:31:14;;;;;;;4.37;1.98;;;;;;;;;;4398188;32;59130;-59
2023/07/12 14:34:01;;;;;;;2.97;1.52;;;;;;;;;;4376853;32;70846;-59
2023/07/12 14:36:48;;;;;;;3.70;1.55;;;;;;;;;;4386621;32;67571;-59
2023/07/12 14:39:35;;;;;;;5.60;1.87;;;;;;;;;;4387307;32;67857;-59
2023/07/12 14:42:23;;;;;;;2.30;1.40;;;;;;;;;;4398680;32;70735;-60
2023/07/12 14:45:21;;;;;;;1.30;1.20;;;;;;;;;;4386454;32;71494;-59
2023/07/12 14:48:12;;;;;;;1.48;0.98;;;;;;;;;;4397786;32;69338;-59
2023/07/12 14:50:59;;;;;;;0.98;0.90;;;;;;;;;;4386962;32;67702;-60
2023/07/12 14:53:50;;;;;;;2.03;1.23;;;;;;;;;;4364831;32;72444;-60
2023/07/12 14:56:36;;;;;;;1.87;1.35;;;;;;;;;;4386637;32;67325;-59
2023/07/12 14:59:23;;;;;;;1.92;1.35;;;;;;;;;;4385958;32;69028;-59
2023/07/12 15:02:36;;;;;;;2.50;1.60;;;;;;;;;;4375903;32;61280;-59
2023/07/12 15:05:23;;;;;;;2.08;1.30;;;;;;;;;;4376481;32;70627;-59
2023/07/12 15:08:31;;;;;;;3.08;1.30;;;;;;;;;;4386341;32;70234;-59
2023/07/12 15:11:20;;;;;;;1.37;1.27;;;;;;;;;;4376050;32;68580;-58
2023/07/12 15:14:11;;;;;;;1.40;1.30;;;;;;;;;;4397546;32;60485;-59
2023/07/12 15:16:58;;;;;;;3.20;1.40;;;;;;;;;;4397495;32;70677;-59
2023/07/12 15:19:44;;;;;;;1.48;1.20;;;;;;;;;;4396774;32;68944;-60
2023/07/12 15:22:32;;;;;;;2.03;1.15;;;;;;;;;;4375592;32;68196;-59
2023/07/12 15:25:27;;;;;;;1.08;1.02;;;;;;;;;;4375947;32;72691;-59
2023/07/12 15:28:15;;;;;;;2.95;1.17;;;;;;;;;;4397475;32;65003;-58
2023/07/12 15:31:01;;;;;;;1.15;1.05;;;;;;;;;;4375945;32;68608;-60
2023/07/12 15:33:49;;;;;;;1.62;1.08;;;;;;;;;;4387353;32;60273;-59
2023/07/12 15:36:36;;;;;;;1.00;1.00;;;;;;;;;;4376733;32;71954;-58
2023/07/12 15:39:23;;;;;;;1.17;1.08;;;;;;;;;;4387580;32;65177;-59
2023/07/12 15:42:21;;;;;;;2.03;1.15;;;;;;;;;;4397287;32;67987;-59
2023/07/12 15:45:14;;;;;;;1.75;1.37;;;;;;;;;;4386482;32;60236;-59
2023/07/12 15:48:01;;;;;;;1.62;1.27;;;;;;;;;;4386303;32;70767;-59
2023/07/12 15:50:48;;;;;;;;;;;;;;;;;;4386183;32;69618;-59
2023/07/12 15:53:35;;;;;;;1.50;1.30;;;;;;;;;;4397043;32;68058;-61
2023/07/12 15:56:26;;;;;;;2.22;1.62;;;;;;;;;;4396917;32;70851;-59
2023/07/12 15:59:15;;;;;;;3.55;1.60;;;;;;;;;;4386255;32;66672;-59
2023/07/12 16:02:02;;;;;;;3.25;1.52;;;;;;;;;;4386217;32;69361;-60
2023/07/12 16:04:48;;;;;;;;;;;;;;;;;;4386662;32;67743;-63
2023/07/12 16:07:35;;;;;;;3.03;1.30;;;;;;;;;;4385557;32;70565;-60
2023/07/12 16:10:23;;;;;;;2.90;1.33;;;;;;;;;;4386303;32;65214;-60
2023/07/12 16:13:14;;;;;;;1.70;1.08;;;;;;;;;;4386191;32;67116;-58
2023/07/12 16:16:01;;;;;;;2.15;1.60;;;;;;;;;;4374968;32;62092;-59
2023/07/12 16:18:48;;;;;;;1.92;1.67;;;;;;;;;;4364202;32;71153;-58
2023/07/12 16:23:34;;;;;;;3.53;1.90;;;;;;;;;;3868722;36;43449;-66
2023/07/12 16:26:23;;;;;;;2.70;2.20;;;;;;;;;;4400726;32;60745;-60
2023/07/12 16:29:09;;;;;;;4.32;1.87;;;;;;;;;;4403682;32;69452;-59
2023/07/12 16:31:56;;;;;;;2.75;1.67;;;;;;;;;;4400718;32;69977;-59
2023/07/12 16:34:43;;;;;;;;;;;;;;;;;;4426610;32;67830;-59
2023/07/12 16:37:30;;;;;;;1.90;1.75;;;;;;;;;;4403726;32;71741;-59
2023/07/12 16:40:17;;;;;;;7.20;3.17;;;;;;;;;;4379445;32;64316;-59
2023/07/12 16:43:03;;;;;;;2.78;1.95;;;;;;;;;;4414009;32;67150;-59
2023/07/12 16:45:50;;;;;;;2.60;1.60;;;;;;;;;;4400927;32;58819;-60
2023/07/12 16:48:37;;;;;;;3.10;1.85;;;;;;;;;;4400787;32;70309;-59
2023/07/12 16:51:30;;;;;;;2.78;2.10;;;;;;;;;;4403187;32;65936;-59
2023/07/12 16:54:16;;;;;;;2.10;1.67;;;;;;;;;;4398626;32;66379;-59
2023/07/12 16:57:03;;;;;;;4.97;1.95;;;;;;;;;;4374357;32;60748;-59
2023/07/12 16:59:51;;;;;;;3.45;2.33;;;;;;;;;;4376998;32;70625;-59
2023/07/12 17:02:37;;;;;;;2.85;2.10;;;;;;;;;;4398477;32;68346;-59
2023/07/12 17:05:24;;;;;;;3.00;2.22;;;;;;;;;;4387759;32;67636;-59